Aviator — V7NU9 — position and weather

sailwx.info

Track history (hours):
 
Tides and Currents Weather Stations Pressure Air Temp Water Temp Dewpoint Dewpoint Depression Visibility Wind Speed Wind Dir Waves Ship Positions

Aviator

Last reported at 2016-Sep-29 16:20 UTC. Time now 2016-Sep-30 08:21 UTC.
Position N 31°22' W 013°45'.

Length 140 m; draft 5.1 m.

Type: Ship. MMSI: 538003023.

Date/timePositionNaut miles runAvg speedWind from/ knotsBaromVisibWave heightAir tempDewpointWater temp
2016-Sep-29 16:20N 31°22' W 013°45'810.3
2016-Sep-29 15:33N 31°14' W 013°47'14 9.9
2016-Sep-29 14:07N 31°00' W 013°52'6010.9
2016-Sep-29 08:33N 30°03' W 014°14'1110.7
2016-Sep-29 07:33N 29°53' W 014°18'7310.5
2016-Sep-29 00:32N 28°42' W 014°42'3311.0
2016-Sep-28 21:33N 28°11' W 014°53'2110.7
2016-Sep-28 19:33N 27°51' W 015°01'457 9.5
2016-Sep-26 19:22N 20°44' W 017°59'  
Track history (hours):
 
Tides and Currents Weather Stations Pressure Air Temp Water Temp Dewpoint Dewpoint Depression Visibility Wind Speed Wind Dir Waves Ship Positions

Aviator

Last reported at 2016-Sep-29 16:20 UTC. Time now 2016-Sep-30 08:21 UTC.
Position N 31°22' W 013°45'.

Length 140 m; draft 5.1 m.

Type: Ship. MMSI: 538003023.

Date/timePositionNaut miles runAvg speedWind from/ knotsBaromVisibWave heightAir tempDewpointWater temp
2016-Sep-29 16:20N 31°22' W 013°45'810.3
2016-Sep-29 15:33N 31°14' W 013°47'14 9.9
2016-Sep-29 14:07N 31°00' W 013°52'6010.9
2016-Sep-29 08:33N 30°03' W 014°14'1110.7
2016-Sep-29 07:33N 29°53' W 014°18'7310.5
2016-Sep-29 00:32N 28°42' W 014°42'3311.0
2016-Sep-28 21:33N 28°11' W 014°53'2110.7
2016-Sep-28 19:33N 27°51' W 015°01'457 9.5
2016-Sep-26 19:22N 20°44' W 017°59'  

Dump ship's entire track history